Grissom ARB, Indiana
Current Conditions -  °F | °C
As of 10:58 PM on Thursday 18 Dec 2014 (Local Time) from KGUS Reporting Station
Overcast Overcast  
Wind Chill: 20°   Ceiling: 2000
Heat Index: 26°   Visibility: 10mi
Dew Point: 23°   Wind: 5mph
Humidity: 89%   Direction: 300°WNW
Pressure: 30.24"   Gusts: NA
Location:  40.6587°N, 86.1483°W
Report Text: KGUS 190358Z AUTO 30004KT 10SM OVC020 M03/M05 A3024 RMK AO2 SLPNO T10341050
Loading
Personal Weather Stations






























Interactive Weather Map New forecast layout! Learn more

10-Day Weather Forecast

Advertisements
Track Severe Weather on mobile